createdAt,value
2022-10-03T00:00:31.413Z,101127.06
2022-10-03T00:03:33.943Z,101131.09
2022-10-03T00:06:31.698Z,101132.22
2022-10-03T00:09:11.489Z,101124.16
2022-10-03T00:12:01.468Z,101133.41
2022-10-03T00:14:41.004Z,101134.25
2022-10-03T00:17:20.670Z,101131.75
2022-10-03T00:20:06.555Z,101133.44
2022-10-03T00:22:40.380Z,101135.91
2022-10-03T00:25:32.640Z,101144.88
2022-10-03T00:28:22.028Z,101147.38
2022-10-03T00:31:09.374Z,101146.97
2022-10-03T00:34:11.389Z,101143.63
2022-10-03T00:37:05.510Z,101150.88
2022-10-03T00:40:09.557Z,101143.50
2022-10-03T00:43:15.451Z,101148.66
2022-10-03T00:46:11.457Z,101148.78
2022-10-03T00:48:50.989Z,101153.00
2022-10-03T00:52:16.486Z,101148.78
2022-10-03T00:55:01.829Z,101163.72
2022-10-03T00:57:55.505Z,101174.94
2022-10-03T01:00:29.748Z,101168.22
2022-10-03T01:03:22.550Z,101165.84
2022-10-03T01:05:59.778Z,101178.69
2022-10-03T01:08:57.277Z,101175.47
2022-10-03T01:11:34.132Z,101173.97
2022-10-03T01:14:37.538Z,101180.69
2022-10-03T01:17:32.051Z,101178.97
2022-10-03T01:20:22.693Z,101185.13
2022-10-03T01:22:52.969Z,101181.34
2022-10-03T01:25:26.699Z,101189.88
2022-10-03T01:28:42.872Z,101181.63
2022-10-03T01:31:14.872Z,101182.59
2022-10-03T01:33:49.448Z,101187.91
2022-10-03T01:36:35.250Z,101191.69
2022-10-03T01:39:07.857Z,101192.38
2022-10-03T01:42:05.047Z,101188.34
2022-10-03T01:44:54.243Z,101188.22
2022-10-03T01:47:40.604Z,101201.31
2022-10-03T01:50:27.138Z,101199.50
2022-10-03T01:53:24.163Z,101197.56
2022-10-03T01:55:52.147Z,101199.28
2022-10-03T01:58:23.649Z,101205.56
2022-10-03T02:01:20.557Z,101204.97
2022-10-03T02:04:04.443Z,101212.78
2022-10-03T02:06:45.105Z,101207.34
2022-10-03T02:09:28.055Z,101210.28
2022-10-03T02:12:23.906Z,101208.91
2022-10-03T02:15:12.185Z,101213.66
2022-10-03T02:18:00.888Z,101210.00
2022-10-03T02:20:34.476Z,101218.69
2022-10-03T02:23:02.969Z,101219.66
2022-10-03T02:25:36.479Z,101220.38
2022-10-03T02:28:10.389Z,101225.53
2022-10-03T02:31:23.925Z,101218.41
2022-10-03T02:34:10.048Z,101219.53
2022-10-03T02:37:08.338Z,101211.56
2022-10-03T02:39:51.069Z,101219.38
2022-10-03T02:42:37.385Z,101212.25
2022-10-03T02:45:31.307Z,101214.72
2022-10-03T02:48:19.751Z,101222.84
2022-10-03T02:50:52.876Z,101226.91
2022-10-03T02:53:39.654Z,101220.63
2022-10-03T02:56:38.807Z,101225.09
2022-10-03T02:59:30.693Z,101218.13
2022-10-03T03:02:31.053Z,101215.06
2022-10-03T03:05:17.877Z,101222.03
2022-10-03T03:08:01.002Z,101225.78
2022-10-03T03:10:41.127Z,101232.06
2022-10-03T03:13:31.863Z,101242.97
2022-10-03T03:16:34.456Z,101236.38
2022-10-03T03:19:12.478Z,101241.28
2022-10-03T03:22:18.506Z,101249.09
2022-10-03T03:25:03.841Z,101243.94
2022-10-03T03:27:31.746Z,101243.19
2022-10-03T03:30:09.969Z,101237.03
2022-10-03T03:32:53.245Z,101235.91
2022-10-03T03:35:46.753Z,101241.19
2022-10-03T03:38:26.181Z,101245.03
2022-10-03T03:41:14.641Z,101251.06
2022-10-03T03:43:59.485Z,101243.13
2022-10-03T03:47:02.362Z,101243.06
2022-10-03T03:49:48.505Z,101241.25
2022-10-03T03:52:37.515Z,101237.63
2022-10-03T03:55:15.266Z,101245.16
2022-10-03T03:57:59.865Z,101248.44
2022-10-03T04:00:46.447Z,101247.00
2022-10-03T04:03:20.505Z,101252.03
2022-10-03T04:05:54.323Z,101263.34
2022-10-03T04:08:42.131Z,101269.56
2022-10-03T04:11:31.591Z,101273.66
2022-10-03T04:14:38.285Z,101265.28
2022-10-03T04:17:42.872Z,101278.34
2022-10-03T04:20:16.096Z,101282.88
2022-10-03T04:22:58.048Z,101277.31
2022-10-03T04:25:32.074Z,101278.41
2022-10-03T04:28:27.002Z,101285.00
2022-10-03T04:31:07.239Z,101276.78
2022-10-03T04:33:43.434Z,101276.41
2022-10-03T04:36:46.185Z,101267.47
2022-10-03T04:39:36.863Z,101275.81
2022-10-03T04:42:41.018Z,101262.19
2022-10-03T04:45:36.939Z,101261.97
2022-10-03T04:48:16.711Z,101261.53
2022-10-03T04:51:29.960Z,101259.75
2022-10-03T04:54:30.838Z,101254.25
2022-10-03T04:57:36.086Z,101247.91
2022-10-03T05:00:30.283Z,101257.88
2022-10-03T05:03:07.683Z,101258.41
2022-10-03T05:06:07.495Z,101265.41
2022-10-03T05:08:58.813Z,101264.31
2022-10-03T05:11:48.295Z,101256.47
2022-10-03T05:14:32.541Z,101262.00
2022-10-03T05:17:19.808Z,101266.63
2022-10-03T05:19:54.042Z,101265.69
2022-10-03T05:22:28.602Z,101273.13
2022-10-03T05:25:02.532Z,101277.22
2022-10-03T05:27:52.005Z,101282.56
2022-10-03T05:30:35.486Z,101282.22
2022-10-03T05:33:25.209Z,101283.47
2022-10-03T05:36:18.702Z,101292.50
2022-10-03T05:38:58.813Z,101297.44
2022-10-03T05:41:32.630Z,101299.06
2022-10-03T05:44:06.766Z,101302.53
2022-10-03T05:46:56.473Z,101302.84
2022-10-03T05:49:50.599Z,101295.50
2022-10-03T05:52:40.501Z,101295.63
2022-10-03T05:55:14.538Z,101285.97
2022-10-03T05:58:14.187Z,101294.66
2022-10-03T06:01:01.093Z,101290.41
2022-10-03T06:03:53.116Z,101299.03
2022-10-03T06:07:05.537Z,101302.25
2022-10-03T06:09:58.157Z,101307.88
2022-10-03T06:12:52.431Z,101309.03
2022-10-03T06:15:38.635Z,101321.06
2022-10-03T06:18:12.712Z,101317.44
2022-10-03T06:21:25.653Z,101316.25
2022-10-03T06:24:02.406Z,101309.41
2022-10-03T06:26:51.015Z,101312.47
2022-10-03T06:29:46.467Z,101326.16
2022-10-03T06:32:24.597Z,101336.16
2022-10-03T06:35:16.987Z,101326.69
2022-10-03T06:38:10.287Z,101320.59
2022-10-03T06:41:05.589Z,101316.09
2022-10-03T06:44:18.528Z,101317.00
2022-10-03T06:46:55.329Z,101318.97
2022-10-03T06:49:46.756Z,101318.69
2022-10-03T06:52:46.586Z,101320.16
2022-10-03T06:55:51.548Z,101329.94
2022-10-03T06:58:47.622Z,101328.00
2022-10-03T07:01:27.650Z,101329.16
2022-10-03T07:04:33.365Z,101333.75
2022-10-03T07:07:19.393Z,101331.38
2022-10-03T07:10:02.108Z,101325.78
2022-10-03T07:12:44.819Z,101328.59
2022-10-03T07:15:50.076Z,101335.97
2022-10-03T07:18:43.159Z,101343.34
2022-10-03T07:21:19.921Z,101343.41
2022-10-03T07:24:10.610Z,101349.56
2022-10-03T07:26:48.089Z,101367.75
2022-10-03T07:29:35.023Z,101364.47
2022-10-03T07:32:32.732Z,101367.44
2022-10-03T07:35:27.373Z,101370.81
2022-10-03T07:38:32.646Z,101360.19
2022-10-03T07:41:19.130Z,101371.31
2022-10-03T07:43:47.113Z,101368.34
2022-10-03T07:46:26.848Z,101370.53
2022-10-03T07:49:16.215Z,101382.22
2022-10-03T07:52:17.418Z,101371.47
2022-10-03T07:54:53.646Z,101374.56
2022-10-03T07:57:27.995Z,101385.66
2022-10-03T08:00:08.702Z,101390.09
2022-10-03T08:02:57.033Z,101381.13
2022-10-03T08:05:58.104Z,101381.34
2022-10-03T08:09:03.241Z,101368.22
2022-10-03T08:12:08.689Z,101369.66
2022-10-03T08:14:53.061Z,101368.91
2022-10-03T08:17:30.100Z,101374.16
2022-10-03T08:20:18.642Z,101371.19
2022-10-03T08:23:18.335Z,101369.16
2022-10-03T08:26:13.840Z,101371.41
2022-10-03T08:29:06.986Z,101379.59
2022-10-03T08:31:44.387Z,101370.97
2022-10-03T08:34:39.589Z,101368.81
2022-10-03T08:37:44.325Z,101382.25
2022-10-03T08:40:34.992Z,101384.66
2022-10-03T08:43:24.293Z,101387.72
2022-10-03T08:46:01.012Z,101393.69
2022-10-03T08:48:55.882Z,101378.66
2022-10-03T08:52:01.191Z,101379.94
2022-10-03T08:54:47.849Z,101378.66
2022-10-03T08:57:32.232Z,101371.03
2022-10-03T09:00:22.110Z,101375.06
2022-10-03T09:03:34.969Z,101377.78
2022-10-03T09:06:12.001Z,101375.16
2022-10-03T09:09:04.089Z,101372.78
2022-10-03T09:11:32.603Z,101368.13
2022-10-03T09:14:31.854Z,101366.66
2022-10-03T09:17:26.975Z,101372.34
2022-10-03T09:20:22.740Z,101369.25
2022-10-03T09:22:59.764Z,101375.28
2022-10-03T09:26:06.171Z,101382.59
2022-10-03T09:28:52.970Z,101381.22
2022-10-03T09:32:01.981Z,101367.38
2022-10-03T09:35:10.115Z,101365.41
2022-10-03T09:37:56.500Z,101365.53
2022-10-03T09:40:53.203Z,101367.03
2022-10-03T09:43:46.242Z,101365.09
2022-10-03T09:46:36.314Z,101368.00
2022-10-03T09:49:28.672Z,101368.69
2022-10-03T09:52:25.287Z,101360.66
2022-10-03T09:55:18.312Z,101355.34
2022-10-03T09:58:09.050Z,101361.16
2022-10-03T10:00:57.862Z,101351.09
2022-10-03T10:03:47.317Z,101352.34
2022-10-03T10:06:20.562Z,101356.34
2022-10-03T10:09:21.897Z,101340.38
2022-10-03T10:12:14.604Z,101346.84
2022-10-03T10:14:47.905Z,101339.88
2022-10-03T10:18:08.973Z,101339.59
2022-10-03T10:21:06.641Z,101331.88
2022-10-03T10:23:49.957Z,101331.72
2022-10-03T10:26:49.750Z,101331.56
2022-10-03T10:29:25.854Z,101333.81
2022-10-03T10:32:21.518Z,101329.09
2022-10-03T10:35:16.894Z,101329.03
2022-10-03T10:38:09.738Z,101321.50
2022-10-03T10:40:37.604Z,101334.72
2022-10-03T10:43:59.216Z,101337.59
2022-10-03T10:46:59.136Z,101341.13
2022-10-03T10:49:51.902Z,101323.91
2022-10-03T10:52:56.869Z,101319.16
2022-10-03T10:56:08.678Z,101321.81
2022-10-03T10:59:13.482Z,101318.13
2022-10-03T11:02:08.590Z,101312.88
2022-10-03T11:05:00.957Z,101304.34
2022-10-03T11:08:03.021Z,101301.06
2022-10-03T11:10:45.910Z,101310.22
2022-10-03T11:13:35.618Z,101305.31
2022-10-03T11:16:25.931Z,101307.09
2022-10-03T11:19:14.878Z,101299.75
2022-10-03T11:22:04.609Z,101293.81
2022-10-03T11:24:34.960Z,101290.09
2022-10-03T11:27:22.110Z,101299.88
2022-10-03T11:29:52.819Z,101296.94
2022-10-03T11:32:24.348Z,101288.78
2022-10-03T11:34:57.647Z,101293.19
2022-10-03T11:38:13.028Z,101292.63
2022-10-03T11:40:53.248Z,101291.84
2022-10-03T11:43:35.900Z,101299.84
2022-10-03T11:46:23.108Z,101289.72
2022-10-03T11:49:01.836Z,101280.16
2022-10-03T11:51:58.841Z,101285.94
2022-10-03T11:54:32.814Z,101281.19
2022-10-03T11:57:08.517Z,101276.88
2022-10-03T11:59:39.496Z,101276.41
2022-10-03T12:02:31.418Z,101268.69
2022-10-03T12:05:22.783Z,101270.72
2022-10-03T12:08:11.612Z,101276.00
2022-10-03T12:10:42.067Z,101271.34
2022-10-03T12:13:17.270Z,101267.41
2022-10-03T12:15:54.113Z,101277.84
2022-10-03T12:18:44.874Z,101272.69
2022-10-03T12:21:21.581Z,101256.56
2022-10-03T12:24:25.842Z,101259.59
2022-10-03T12:26:57.410Z,101259.97
2022-10-03T12:29:28.123Z,101259.47
2022-10-03T12:31:59.289Z,101255.22
2022-10-03T12:34:45.363Z,101256.91
2022-10-03T12:37:50.356Z,101248.84
2022-10-03T12:40:41.942Z,101242.94
2022-10-03T12:43:47.589Z,101242.56
2022-10-03T12:46:34.113Z,101242.56
2022-10-03T12:49:26.600Z,101235.56
2022-10-03T12:51:58.889Z,101238.56
2022-10-03T12:54:40.750Z,101234.50
2022-10-03T12:57:39.565Z,101239.38
2022-10-03T13:00:27.697Z,101237.69
2022-10-03T13:03:13.102Z,101227.97
2022-10-03T13:06:07.022Z,101227.09
2022-10-03T13:09:22.103Z,101228.91
2022-10-03T13:11:58.471Z,101229.13
2022-10-03T13:14:27.855Z,101234.41
2022-10-03T13:17:20.222Z,101227.78
2022-10-03T13:19:58.390Z,101234.28
2022-10-03T13:22:34.387Z,101230.66
2022-10-03T13:25:17.808Z,101214.59
2022-10-03T13:28:13.114Z,101226.91
2022-10-03T13:30:58.042Z,101225.03
2022-10-03T13:33:32.987Z,101231.19
2022-10-03T13:36:20.672Z,101225.31
2022-10-03T13:39:08.109Z,101212.84
2022-10-03T13:41:52.047Z,101218.63
2022-10-03T13:44:37.696Z,101221.16
2022-10-03T13:47:27.022Z,101220.84
2022-10-03T13:50:01.478Z,101210.22
2022-10-03T13:52:48.050Z,101210.00
2022-10-03T13:55:58.453Z,101213.88
2022-10-03T13:58:36.094Z,101213.63
2022-10-03T14:01:27.232Z,101213.09
2022-10-03T14:04:19.430Z,101214.16
2022-10-03T14:06:52.581Z,101216.22
2022-10-03T14:09:29.157Z,101215.63
2022-10-03T14:12:06.712Z,101219.41
2022-10-03T14:15:09.043Z,101213.78
2022-10-03T14:17:50.595Z,101217.31
2022-10-03T14:20:29.341Z,101217.91
2022-10-03T14:23:18.646Z,101217.19
2022-10-03T14:26:00.251Z,101217.91
2022-10-03T14:28:46.472Z,101222.53
2022-10-03T14:31:20.410Z,101218.00
2022-10-03T14:34:25.558Z,101213.06
2022-10-03T14:36:52.968Z,101215.03
2022-10-03T14:39:39.280Z,101204.78
2022-10-03T14:42:31.315Z,101214.88
2022-10-03T14:45:12.786Z,101217.88
2022-10-03T14:47:43.973Z,101215.63
2022-10-03T14:50:22.503Z,101218.09
2022-10-03T14:53:09.193Z,101215.63
2022-10-03T14:55:53.033Z,101223.66
2022-10-03T14:58:32.679Z,101223.88
2022-10-03T15:01:13.182Z,101210.13
2022-10-03T15:04:06.996Z,101216.81
2022-10-03T15:06:45.121Z,101212.72
2022-10-03T15:09:17.654Z,101199.03
2022-10-03T15:12:18.301Z,101213.06
2022-10-03T15:15:01.654Z,101210.72
2022-10-03T15:17:37.248Z,101208.59
2022-10-03T15:20:06.192Z,101202.22
2022-10-03T15:22:36.504Z,101208.84
2022-10-03T15:25:13.913Z,101211.19
2022-10-03T15:27:45.265Z,101209.50
2022-10-03T15:30:31.931Z,101212.06
2022-10-03T15:33:29.467Z,101211.09
2022-10-03T15:36:09.515Z,101211.31
2022-10-03T15:38:42.005Z,101220.81
2022-10-03T15:41:50.607Z,101223.50
2022-10-03T15:44:39.350Z,101221.31
2022-10-03T15:47:15.147Z,101216.72
2022-10-03T15:50:04.739Z,101214.72
2022-10-03T15:52:43.990Z,101211.31
2022-10-03T15:55:20.408Z,101216.81
2022-10-03T15:57:51.097Z,101215.69
2022-10-03T16:00:39.233Z,101221.44
2022-10-03T16:03:17.815Z,101223.72
2022-10-03T16:06:01.036Z,101223.09
2022-10-03T16:08:33.475Z,101218.31
2022-10-03T16:11:04.841Z,101216.63
2022-10-03T16:13:38.544Z,101221.38
2022-10-03T16:16:16.675Z,101227.28
2022-10-03T16:18:51.961Z,101222.94
2022-10-03T16:21:31.448Z,101221.56
2022-10-03T16:24:03.263Z,101229.97
2022-10-03T16:26:42.167Z,101227.53
2022-10-03T16:29:30.863Z,101232.63
2022-10-03T16:32:07.896Z,101236.53
2022-10-03T16:34:41.648Z,101232.53
2022-10-03T16:37:19.644Z,101235.47
2022-10-03T16:40:20.432Z,101238.66
2022-10-03T16:42:51.911Z,101234.81
2022-10-03T16:45:31.261Z,101239.69
2022-10-03T16:48:22.269Z,101234.19
2022-10-03T16:50:53.482Z,101238.06
2022-10-03T16:53:23.393Z,101237.91
2022-10-03T16:56:08.351Z,101239.09
2022-10-03T16:58:43.590Z,101249.47
2022-10-03T17:01:27.213Z,101248.97
2022-10-03T17:04:17.980Z,101250.16
2022-10-03T17:06:48.962Z,101243.66
2022-10-03T17:09:47.402Z,101245.84
2022-10-03T17:12:27.578Z,101245.69
2022-10-03T17:14:58.373Z,101256.25
2022-10-03T17:17:30.348Z,101256.09
2022-10-03T17:20:05.693Z,101251.56
2022-10-03T17:22:47.231Z,101266.59
2022-10-03T17:25:18.288Z,101267.06
2022-10-03T17:27:51.113Z,101264.22
2022-10-03T17:30:40.076Z,101265.06
2022-10-03T17:33:17.015Z,101271.16
2022-10-03T17:36:06.273Z,101270.63
2022-10-03T17:38:50.488Z,101270.47
2022-10-03T17:41:24.525Z,101275.69
2022-10-03T17:44:28.539Z,101272.00
2022-10-03T17:47:33.120Z,101271.31
2022-10-03T17:50:02.935Z,101280.00
2022-10-03T17:52:32.008Z,101285.97
2022-10-03T17:55:07.072Z,101284.47
2022-10-03T17:57:42.877Z,101291.31
2022-10-03T18:00:19.974Z,101289.34
2022-10-03T18:03:14.231Z,101292.94
2022-10-03T18:05:50.134Z,101301.69
2022-10-03T18:08:30.446Z,101297.09
2022-10-03T18:11:02.496Z,101292.97
2022-10-03T18:13:42.404Z,101290.63
2022-10-03T18:16:30.877Z,101302.56
2022-10-03T18:19:07.940Z,101297.31
2022-10-03T18:21:41.514Z,101300.03
2022-10-03T18:24:16.919Z,101315.00
2022-10-03T18:26:54.343Z,101318.34
2022-10-03T18:29:37.659Z,101310.56
2022-10-03T18:32:11.730Z,101314.56
2022-10-03T18:34:53.131Z,101319.69
2022-10-03T18:37:28.263Z,101324.19
2022-10-03T18:39:58.685Z,101325.25
2022-10-03T18:42:28.368Z,101318.09
2022-10-03T18:45:01.848Z,101329.31
2022-10-03T18:47:41.543Z,101331.25
2022-10-03T18:50:22.708Z,101336.69
2022-10-03T18:53:04.020Z,101329.84
2022-10-03T18:55:46.642Z,101333.94
2022-10-03T18:58:25.992Z,101327.94
2022-10-03T19:01:16.633Z,101347.69
2022-10-03T19:03:58.661Z,101339.28
2022-10-03T19:06:37.518Z,101337.81
2022-10-03T19:09:19.628Z,101331.16
2022-10-03T19:11:53.631Z,101344.19
2022-10-03T19:14:47.752Z,101346.84
2022-10-03T19:17:51.799Z,101343.47
2022-10-03T19:20:33.401Z,101344.84
2022-10-03T19:23:36.536Z,101352.91
2022-10-03T19:26:13.001Z,101354.72
2022-10-03T19:28:50.059Z,101354.13
2022-10-03T19:31:25.336Z,101353.03
2022-10-03T19:34:04.045Z,101356.47
2022-10-03T19:36:37.301Z,101354.19
2022-10-03T19:39:07.848Z,101357.22
2022-10-03T19:41:40.780Z,101358.53
2022-10-03T19:44:16.953Z,101365.06
2022-10-03T19:46:48.637Z,101371.66
2022-10-03T19:49:31.306Z,101360.50
2022-10-03T19:52:21.293Z,101373.66
2022-10-03T19:54:50.992Z,101381.09
2022-10-03T19:57:28.324Z,101395.34
2022-10-03T20:00:15.058Z,101393.56
2022-10-03T20:02:46.162Z,101403.38
2022-10-03T20:05:39.930Z,101405.81
2022-10-03T20:08:46.427Z,101412.25
2022-10-03T20:11:35.312Z,101411.41
2022-10-03T20:14:04.101Z,101417.84
2022-10-03T20:16:36.105Z,101422.88
2022-10-03T20:19:07.858Z,101425.00
2022-10-03T20:21:36.723Z,101430.31
2022-10-03T20:24:37.216Z,101430.31
2022-10-03T20:27:23.945Z,101440.28
2022-10-03T20:30:21.773Z,101442.06
2022-10-03T20:32:51.271Z,101437.31
2022-10-03T20:35:26.042Z,101443.78
2022-10-03T20:38:17.463Z,101445.69
2022-10-03T20:41:09.951Z,101450.34
2022-10-03T20:43:44.260Z,101458.16
2022-10-03T20:46:33.117Z,101459.72
2022-10-03T20:49:13.141Z,101460.69
2022-10-03T20:51:56.551Z,101460.22
2022-10-03T20:54:48.081Z,101457.47
2022-10-03T20:57:21.426Z,101457.16
2022-10-03T21:00:00.359Z,101473.25
2022-10-03T21:02:50.307Z,101457.75
2022-10-03T21:05:38.573Z,101463.22
2022-10-03T21:08:29.750Z,101451.72
2022-10-03T21:11:26.297Z,101455.09
2022-10-03T21:14:29.893Z,101456.59
2022-10-03T21:16:59.549Z,101464.28
2022-10-03T21:19:33.164Z,101461.91
2022-10-03T21:22:05.453Z,101463.19
2022-10-03T21:24:46.443Z,101471.56
2022-10-03T21:27:19.033Z,101466.81
2022-10-03T21:30:23.944Z,101471.16
2022-10-03T21:33:05.376Z,101465.97
2022-10-03T21:35:36.190Z,101470.84
2022-10-03T21:38:10.932Z,101471.56
2022-10-03T21:41:09.491Z,101475.63
2022-10-03T21:43:58.000Z,101475.50
2022-10-03T21:46:53.863Z,101481.66
2022-10-03T21:49:31.056Z,101480.84
2022-10-03T21:52:14.458Z,101485.44
2022-10-03T21:55:00.982Z,101485.44
2022-10-03T21:57:44.038Z,101488.09
2022-10-03T22:00:18.539Z,101482.50
2022-10-03T22:03:16.876Z,101490.81
2022-10-03T22:06:29.745Z,101481.97
2022-10-03T22:09:04.343Z,101485.06
2022-10-03T22:11:44.127Z,101483.22
2022-10-03T22:14:15.741Z,101486.03
2022-10-03T22:16:57.075Z,101480.88
2022-10-03T22:19:31.656Z,101479.72
2022-10-03T22:22:13.969Z,101478.84
2022-10-03T22:24:44.683Z,101482.78
2022-10-03T22:27:29.947Z,101481.81
2022-10-03T22:30:06.065Z,101492.13
2022-10-03T22:32:34.276Z,101488.09
2022-10-03T22:35:32.895Z,101486.41
2022-10-03T22:38:01.561Z,101481.97
2022-10-03T22:40:30.378Z,101478.03
2022-10-03T22:43:03.363Z,101485.88
2022-10-03T22:45:36.038Z,101479.84
2022-10-03T22:48:10.952Z,101477.47
2022-10-03T22:50:41.937Z,101475.22
2022-10-03T22:53:15.323Z,101473.25
2022-10-03T22:55:46.883Z,101475.59
2022-10-03T22:58:14.851Z,101466.34
2022-10-03T23:00:45.575Z,101465.38
2022-10-03T23:03:15.866Z,101467.94
2022-10-03T23:05:59.163Z,101474.97
2022-10-03T23:09:04.653Z,101477.50
2022-10-03T23:11:35.025Z,101479.31
2022-10-03T23:14:18.743Z,101481.41
2022-10-03T23:16:56.199Z,101471.44
2022-10-03T23:19:48.520Z,101479.81
2022-10-03T23:22:18.537Z,101482.34
2022-10-03T23:25:14.039Z,101481.09
2022-10-03T23:28:27.010Z,101481.09
2022-10-03T23:30:55.049Z,101482.50
2022-10-03T23:33:32.300Z,101479.97
2022-10-03T23:36:16.319Z,101482.75
2022-10-03T23:38:44.629Z,101481.88
2022-10-03T23:41:28.849Z,101485.38
2022-10-03T23:43:58.187Z,101482.47
2022-10-03T23:46:30.262Z,101483.56
2022-10-03T23:49:02.190Z,101486.63
2022-10-03T23:51:34.814Z,101487.06
2022-10-03T23:54:06.492Z,101485.19
2022-10-03T23:56:45.142Z,101489.09
2022-10-03T23:59:15.648Z,101484.94
